• Join FlightAware (Why Join?)
  • Login
  • US Flag 
08:06AM EDT


 

Airport Tracker/Info


-or-


 

Live Flight TrackerFlight Track Log ✈ UAL5882 ✈ 23-Apr-2013 ✈ KORD - KABE

Flight Track Log - Related Links

Times and Time Zones

All times are in EDT time to prevent confusion due to time zone crossing. See the UAL5882 flight status page for this flight to view local times or setup timezone preferences in your user account.

Time Position Orientation Groundspeed Altitude Reporting Facility
EDT Latitude Longitude Course Direction KTS MPH feet Rate Location/Type
10:37AM 41.9167 -87.8833 90° East 212 244 3,100  Level Chicago TRACON
10:38AM 41.9167 -87.7833 90° East 275 316 4,900 1,500 Climbing Chicago TRACON
10:38AM 41.9333 -87.7000 75° East 286 329 5,900 2,100 Climbing Chicago TRACON
10:41AM 41.9333 -87.4744 90° East 308 354 11,100 2,340 Climbing Chicago Center
10:42AM 41.9333 -87.0259 90° East  Level FlightAware Approximate
10:42AM 41.9364 -87.3525 88° East 325 374 13,200  Level Chicago Center
10:43AM 41.9603 -87.2278 76° East 353 406 15,300 1,320 Climbing Chicago Center
10:44AM 42.0019 -87.0817 69° East 352 405 16,000 360 Climbing Chicago Center
10:45AM 42.0172 -86.9544 81° East 353 406 16,100 540 Climbing Chicago Center
10:46AM 42.0069 -86.8267 96° East 345 397 17,200 1,560 Climbing Chicago Center
10:47AM 41.9975 -86.7019 96° East 340 391 19,400 1,860 Climbing Chicago Center
10:48AM 41.9867 -86.5797 97° East 348 400 21,100 1,260 Climbing Chicago Center
10:49AM 41.9731 -86.4106 96° East 378 435 22,100 780 Climbing Chicago Center
10:50AM 41.9583 -86.2519 97° East 422 486 22,700 840 Climbing Chicago Center
10:51AM 41.9436 -86.0889 97° East 439 505 23,900 1,200 Climbing Chicago Center
10:52AM 41.9286 -85.9239 97° East 444 511 25,200 1,200 Climbing Chicago Center
10:53AM 41.9131 -85.7569 97° East 449 517 26,500 1,260 Climbing Chicago Center
10:54AM 41.8969 -85.5864 97° East 456 525 27,800 1,260 Climbing Chicago Center
10:55AM 41.8794 -85.4128 98° East 463 533 29,200 1,500 Climbing Chicago Center
10:56AM 41.8633 -85.2419 97° East 458 527 31,000 1,560 Climbing Chicago Center
10:57AM 41.8450 -85.0739 98° East 453 521 32,400 1,380 Climbing Chicago Center
10:58AM 41.8364 -84.9678 96° East 461 531 33,200 1,380 Climbing Cleveland Center
10:59AM 41.8181 -84.7936 98° East 466 536 34,600 900 Climbing Cleveland Center
11:00AM 41.7994 -84.6167 98° East 466 536 35,000 180 Climbing Cleveland Center
11:01AM 41.7831 -84.4236 96° East 490 564 35,000 60 Level Cleveland Center
11:02AM 41.7756 -84.2086 93° East 512 589 35,200 780 Climbing Cleveland Center
11:03AM 41.7731 -84.0136 91° East 524 603 36,600 900 Climbing Cleveland Center
11:04AM 41.7725 -83.8158 90° East 524 603 37,000 180 Climbing Cleveland Center
11:05AM 41.7697 -83.6178 91° East 529 609 37,000  Level Cleveland Center
11:06AM 41.7561 -83.4142 95° East 535 616 37,000  Level Cleveland Center
11:07AM 41.7378 -83.2183 97° East 535 616 37,000  Level Cleveland Center
11:08AM 41.7172 -83.0200 98° East 540 621 37,000  Level Cleveland Center
11:09AM 41.6961 -82.8244 98° East 540 621 37,000  Level Cleveland Center
11:10AM 41.6769 -82.6319 98° East 529 609 37,000  Level Cleveland Center
11:11AM 41.6592 -82.4425 97° East 524 603 37,000  Level Cleveland Center
11:12AM 41.6411 -82.2669 98° East 524 603 37,000  Level Cleveland Center
11:13AM 41.6228 -82.0942 98° East 493 567 37,000  Level Cleveland Center
11:14AM 41.6039 -81.9356 99° East 448 516 37,000  Level Cleveland Center
11:15AM 41.5869 -81.7714 98° East 443 510 37,000  Level Cleveland Center
11:16AM 41.5658 -81.5906 99° East 448 516 37,000  Level Cleveland Center
11:17AM 41.5461 -81.4267 99° East 448 516 37,000  Level Cleveland Center
11:18AM 41.5286 -81.2656 98° East 448 516 37,000  Level Cleveland Center
11:19AM 41.5106 -81.1072 99° East 448 516 37,000  Level Cleveland Center
11:20AM 41.4967 -80.9492 97° East 427 491 37,000  Level Cleveland Center
11:21AM 41.4844 -80.7939 96° East 420 483 37,000  Level Cleveland Center
11:22AM 41.4722 -80.6581 97° East 420 483 37,000  Level Cleveland Center
11:23AM 41.4575 -80.5000 97° East 425 489 37,000  Level Cleveland Center
11:24AM 41.4428 -80.3283 96° East 439 505 37,000  Level Cleveland Center
11:25AM 41.4256 -80.1594 98° East 455 524 37,000  Level Cleveland Center
11:26AM 41.4081 -79.9742 97° East 461 531 37,000 -60 Level Cleveland Center
11:27AM 41.3903 -79.8053 98° East 461 531 36,900 -600 Descending Cleveland Center
11:28AM 41.3744 -79.6314 97° East 466 536 35,900 -1,140 Descending Cleveland Center
11:29AM 41.3586 -79.4903 98° East 452 520 34,700 -1,500 Descending Cleveland Center
11:30AM 41.3444 -79.3386 97° East 434 499 33,000 -2,220 Descending Cleveland Center
11:31AM 41.3114 -79.1844 106° East 406 467 30,300 -2,580 Descending Cleveland Center
11:32AM 41.2578 -79.0667 121° Southeast 397 457 27,900 -1,920 Descending Cleveland Center
11:33AM 41.2019 -78.9467 122° Southeast 397 457 26,500 -1,560 Descending Cleveland Center
11:34AM 41.1728 -78.7983 105° East 397 457 24,800 -1,320 Descending Cleveland Center
11:35AM 41.1492 -78.6364 101° East 420 483 23,900 -900 Descending Cleveland Center
11:36AM 41.1631 -78.4786 83° East 434 499 23,000 -420 Descending Cleveland Center
11:37AM 41.1922 -78.2794 79° East 419 482 23,000  Level New York Center
11:38AM 41.2119 -78.1300 80° East 419 482 23,000  Level New York Center
11:39AM 41.1947 -77.9708 98° East 419 482 23,000  Level New York Center
11:40AM 41.1731 -77.8114 100° East 430 495 23,000 -540 Level New York Center
11:41AM 41.1511 -77.6519 100° East 435 501 22,000 -1,320 Descending New York Center
11:42AM 41.1161 -77.4969 107° East 435 501 20,500 -1,380 Descending New York Center
11:43AM 41.0847 -77.3506 106° East 430 495 19,300 -1,140 Descending New York Center
11:44AM 41.0511 -77.2042 107° East 419 482 18,300 -840 Descending New York Center
11:45AM 41.0194 -77.0581 106° East 414 476 17,700 -780 Descending New York Center
11:46AM 40.9875 -76.9122 106° East 409 471 16,800 -960 Descending New York Center
11:47AM 40.9553 -76.7664 106° East 409 471 15,900 -1,020 Descending New York Center
11:48AM 40.9250 -76.6264 106° East 404 465 14,800 -1,020 Descending New York Center
11:49AM 40.8944 -76.4836 106° East 399 459 13,900 -900 Descending New York Center
11:50AM 40.8650 -76.3578 107° East 381 438 13,000 -960 Descending New York Center
11:51AM 40.8389 -76.2458 107° East 361 415 12,000 -1,320 Descending New York Center
11:52AM 40.8131 -76.1286 106° East 318 366 10,400 -1,860 Descending New York Center
11:53AM 40.7906 -76.0281 106° East 287 330 8,300 -1,920 Descending New York Center
11:54AM 40.7669 -75.9469 111° Southeast 280 322 6,600 -1,680 Descending New York Center
11:55AM 40.7222 -75.8722 128° Southeast 263 303 5,000 -1,260 Descending New York Center
11:56AM 40.6775 -75.7978 128° Southeast 239 275 4,100 -540 Descending New York Center
11:57AM 40.6367 -75.7319 129° Southeast 239 275 4,000 -60 Descending New York Center
11:58AM 40.5972 -75.6744 132° Southeast 225 259 4,000 -480 Level New York Center
11:59AM 40.5483 -75.6492 159° South 211 243 3,100 -540 Descending New York Center
12:00PM 40.5589 -75.5925 76° East 139 160 3,000 -360 Descending New York Center
12:01PM 40.5878 -75.5506 48° Northeast 119 137 2,400 -660 Descending New York Center
12:02PM 40.6081 -75.5139 54° Northeast 119 137 1,800 -540 Descending New York Center
12:03PM 40.6281 -75.4797 52° Northeast 119 137 1,400 4,560 Descending New York Center
12:04PM 40.6503 -75.4483 47° Northeast 119 137 11,000 4,680 Climbing New York Center
12:05PM 40.6725 -75.4144 49° Northeast 119 137 11,000  Level New York Center